^^
Datos históricos de la estación: Murcia-Puente Tocinos
Diario Informe para Septiembre 27, 2019 Unidades:  Ingés    Métrico   Ambas
Diario Semanal Mensual Anual
  Máxima: Mínima: Promedio:
Temperatura: 85.6 °F 61.9 °F 72.3 °F
Punto de rocio: 62.1 °F 49.6 °F 55.9 °F
Humedad: 87% 28.9% 60%
Velocidad viento: 12.3mph 0mph 5.1mph
Racha viento: 25mph - -
Viento- - SE
Presión: 29.9 in 29.8 in -
Precipitación: 0 in    
 
 
Tabla de datos para Septiembre 27, 2019
Hora Temperatura Punto de rocio Presión Viento Velocidad viento Racha viento Humedad Intensidad lluvia(por hora) Nubes
00:04 67.6 °F 53.4 °F 29.9 in NE 5.2 mph 10.4 mph 60.6% 0 in
00:09 66.9 °F 55 °F 29.9 in NE 5.3 mph 8.1 mph 65.5% 0 in
00:14 66.6 °F 56.1 °F 29.9 in NNE 5.4 mph 7 mph 69% 0 in
00:19 66.2 °F 57.6 °F 29.9 in NNE 5 mph 8.5 mph 73.5% 0 in
00:24 65.8 °F 58.3 °F 29.9 in NNE 4.3 mph 9 mph 76.5% 0 in
00:29 65.7 °F 59 °F 29.9 in NNE 4.7 mph 10.4 mph 78.7% 0 in
00:34 65.7 °F 59.2 °F 29.9 in NNE 5.2 mph 10 mph 80% 0 in
00:39 65.5 °F 59.5 °F 29.9 in NNE 5.3 mph 9.2 mph 81% 0 in
00:44 65.3 °F 59.7 °F 29.9 in NNE 5.4 mph 9.2 mph 82% 0 in
00:49 65.1 °F 59.7 °F 29.9 in NNE 5.6 mph 9.7 mph 82.4% 0 in
00:54 65.1 °F 59.7 °F 29.9 in NNE 5.9 mph 10 mph 83% 0 in
00:59 64.9 °F 59.9 °F 29.9 in NNE 5.2 mph 9.7 mph 83.3% 0 in
01:04 64.9 °F 60.1 °F 29.9 in NNE 4.3 mph 10 mph 84% 0 in
01:09 64.9 °F 59.9 °F 29.9 in NE 4.5 mph 9 mph 84% 0 in
01:14 64.8 °F 59.9 °F 29.9 in NE 4.7 mph 8.1 mph 84.5% 0 in
01:19 64.8 °F 60.1 °F 29.9 in NE 4.3 mph 8 mph 85% 0 in
01:24 64.6 °F 60.1 °F 29.9 in NNE 3.6 mph 7.4 mph 85% 0 in
01:29 64.4 °F 59.9 °F 29.9 in NNE 3.9 mph 7.4 mph 85.1% 0 in
01:34 64.2 °F 59.9 °F 29.9 in NNE 4.3 mph 7 mph 86% 0 in
01:39 64.2 °F 59.9 °F 29.9 in NE 4.2 mph 7 mph 86% 0 in
01:44 64 °F 59.7 °F 29.9 in NE 4 mph 7.4 mph 86% 0 in
01:49 64 °F 60.1 °F 29.9 in NNE 3.9 mph 7 mph 86.7% 0 in
01:54 63.9 °F 59.9 °F 29.9 in NNE 3.6 mph 6.2 mph 87% 0 in
01:59 63.9 °F 59.9 °F 29.9 in NNE 3.7 mph 8.1 mph 87% 0 in
02:04 63.9 °F 59.7 °F 29.9 in NNE 4 mph 8 mph 87% 0 in
02:09 63.7 °F 59.7 °F 29.9 in NNE 4 mph 6.2 mph 87% 0 in
02:14 63.5 °F 59.7 °F 29.9 in NE 4 mph 6.9 mph 87% 0 in
02:19 63.5 °F 59.5 °F 29.9 in NE 4 mph 7 mph 87% 0 in
02:24 63.3 °F 59.4 °F 29.9 in NE 4 mph 7.4 mph 86.6% 0 in
02:29 63.3 °F 59 °F 29.9 in ENE 4.1 mph 7 mph 85.8% 0 in
02:34 63.1 °F 57.9 °F 29.9 in Este 4.3 mph 6 mph 83.1% 0 in
02:39 63 °F 56.7 °F 29.9 in Este 3.6 mph 5 mph 79.9% 0 in
02:44 63 °F 56.3 °F 29.9 in NE 2.4 mph 5.2 mph 79% 0 in
02:49 63 °F 56.3 °F 29.9 in Este 2.6 mph 5.2 mph 79% 0 in
02:54 63 °F 56.5 °F 29.9 in Este 2.9 mph 5 mph 79.4% 0 in
02:59 62.8 °F 56.5 °F 29.9 in Este 2.7 mph 5.2 mph 80% 0 in
03:04 62.8 °F 56.7 °F 29.9 in Este 2.4 mph 5 mph 80.6% 0 in
03:09 62.6 °F 56.8 °F 29.9 in Este 2.4 mph 5 mph 81.2% 0 in
03:14 62.6 °F 57 °F 29.9 in Este 2.4 mph 5 mph 82% 0 in
03:19 62.6 °F 56.7 °F 29.9 in Este 2.2 mph 5 mph 81.1% 0 in
03:24 62.6 °F 56.5 °F 29.9 in Este 2 mph 5 mph 80.5% 0 in
03:29 62.6 °F 56.1 °F 29.9 in ESE 2.4 mph 5.2 mph 79.4% 0 in
03:34 62.6 °F 55.8 °F 29.9 in ESE 2.9 mph 5 mph 78.6% 0 in
03:39 62.8 °F 55.8 °F 29.9 in ESE 2.9 mph 5.2 mph 78% 0 in
03:44 62.8 °F 55.6 °F 29.9 in SE 2.9 mph 5 mph 77% 0 in
03:49 62.8 °F 55.6 °F 29.9 in SSE 2.9 mph 5.2 mph 77% 0 in
03:54 63 °F 55.6 °F 29.9 in Sur 2.9 mph 5.8 mph 77% 0 in
03:59 63 °F 55.6 °F 29.9 in Sur 2.9 mph 6 mph 77% 0 in
04:04 63 °F 55.9 °F 29.9 in Sur 2.9 mph 5 mph 77.9% 0 in
04:09 63 °F 55.9 °F 29.9 in Sur 2.5 mph 5 mph 78% 0 in
04:14 62.8 °F 55.8 °F 29.9 in SSO 2 mph 5 mph 78% 0 in
04:19 62.8 °F 55.8 °F 29.9 in SSO 1.9 mph 3 mph 78% 0 in
04:24 62.8 °F 56.1 °F 29.9 in SSO 1.8 mph 2 mph 79% 0 in
04:29 62.8 °F 56.1 °F 29.9 in SSO 1.1 mph   79% 0 in
04:34 62.8 °F 56.5 °F 29.9 in Calm     79.8% 0 in
04:39 62.8 °F 56.5 °F 29.9 in Calm     80% 0 in
04:44 62.8 °F 56.5 °F 29.9 in Calm     79.9% 0 in
04:49 62.8 °F 56.3 °F 29.9 in Calm     79.5% 0 in
04:54 62.8 °F 56.5 °F 29.9 in Calm   3.6 mph 80% 0 in
04:59 63 °F 57 °F 29.9 in SSO 0.6 mph 4.6 mph 81% 0 in
05:04 63 °F 57.2 °F 29.9 in SSO 1.4 mph 5.8 mph 81.3% 0 in
05:09 63 °F 57.4 °F 29.9 in SSO 2.2 mph 6 mph 82% 0 in
05:14 63 °F 57.7 °F 29.9 in SO 3.6 mph 6.2 mph 82.8% 0 in
05:19 63 °F 57.6 °F 29.9 in SO 3.6 mph 6 mph 82.6% 0 in
05:24 63 °F 57.4 °F 29.9 in SO 3.6 mph 8.1 mph 82% 0 in
05:29 62.8 °F 57.2 °F 29.9 in SO 3.7 mph 8 mph 82% 0 in
05:34 62.8 °F 57.2 °F 29.9 in SO 4 mph 9.2 mph 82% 0 in
05:39 62.6 °F 57 °F 29.9 in SSO 4.3 mph 9 mph 82% 0 in
05:44 62.4 °F 57 °F 29.9 in SSO 4.7 mph 9 mph 82.2% 0 in
05:49 62.4 °F 57.2 °F 29.9 in SSO 4.9 mph 8 mph 83% 0 in
05:54 62.4 °F 57.2 °F 29.9 in SSO 5.2 mph 8.5 mph 83% 0 in
05:59 62.2 °F 57 °F 29.9 in SO 5 mph 9 mph 83% 0 in
06:04 62.2 °F 57 °F 29.9 in SSO 4.7 mph 8.1 mph 83% 0 in
06:09 62.2 °F 57 °F 29.9 in SSO 4.5 mph 8 mph 83% 0 in
06:14 62.2 °F 57 °F 29.9 in SO 4 mph 6.9 mph 83% 0 in
06:19 62.2 °F 57 °F 29.9 in SO 3.9 mph 7 mph 83.2% 0 in
06:24 62.2 °F 57.4 °F 29.9 in SO 3.6 mph 6.4 mph 83.7% 0 in
06:29 62.4 °F 57.4 °F 29.9 in SSO 3.6 mph 7 mph 83.5% 0 in
06:34 62.2 °F 57.2 °F 29.9 in SSO 3.6 mph 7 mph 83% 0 in
06:39 62.2 °F 57 °F 29.9 in SSO 3.7 mph 7 mph 83% 0 in
06:44 62.2 °F 57 °F 29.9 in SSO 4 mph 6 mph 83% 0 in
06:49 62.2 °F 57 °F 29.9 in OSO 3.7 mph 5 mph 83% 0 in
06:54 62.2 °F 57 °F 29.9 in OSO 3.1 mph 5.8 mph 83% 0 in
06:59 62.1 °F 56.5 °F 29.9 in OSO 3 mph 6 mph 82% 0 in
07:04 62.1 °F 56.5 °F 29.9 in OSO 2.9 mph 6 mph 82% 0 in
07:09 61.9 °F 56.3 °F 29.9 in SO 2.9 mph 5 mph 82% 0 in
07:14 61.9 °F 56.3 °F 29.9 in SSO 2.9 mph 5.2 mph 82% 0 in
07:19 61.9 °F 56.1 °F 29.9 in SSO 3 mph 5.2 mph 81.3% 0 in
07:24 61.9 °F 55.9 °F 29.9 in SSO 3.1 mph 5.4 mph 81% 0 in
07:29 62.1 °F 56.1 °F 29.9 in SSO 3 mph 6 mph 81% 0 in
07:34 62.1 °F 56.1 °F 29.9 in SSO 2.9 mph 6.4 mph 81% 0 in
07:39 62.2 °F 55.9 °F 29.9 in SSO 3.4 mph 7 mph 80.2% 0 in
07:44 62.2 °F 56.1 °F 29.9 in SO 4.3 mph 7 mph 80% 0 in
07:49 62.4 °F 56.1 °F 29.9 in SO 3.9 mph 6 mph 79.9% 0 in
07:54 62.8 °F 56.1 °F 29.9 in OSO 3.1 mph 6.2 mph 79% 0 in
07:59 63 °F 56.1 °F 29.9 in OSO 3.1 mph 6.9 mph 78.4% 0 in
08:04 63.1 °F 56.3 °F 29.9 in OSO 3.1 mph 7 mph 78.5% 0 in
08:09 63.1 °F 56.3 °F 29.9 in Oeste 3.3 mph 7 mph 78.4% 0 in
08:14 63.1 °F 56.1 °F 29.9 in ONO 3.6 mph 5 mph 78% 0 in
08:19 63.1 °F 56.3 °F 29.9 in Oeste 3.4 mph 5.9 mph 78% 0 in
08:24 63.3 °F 56.3 °F 29.9 in ONO 3.1 mph 6 mph 78% 0 in
08:29 63.5 °F 56.5 °F 29.9 in Oeste 2.9 mph 5.4 mph 78% 0 in
08:34 63.9 °F 56.8 °F 29.9 in Oeste 2.4 mph 6.2 mph 78% 0 in
08:39 64 °F 57.2 °F 29.9 in OSO 2.9 mph 6.9 mph 78.5% 0 in
08:44 64.2 °F 57.4 °F 29.9 in OSO 3.6 mph 7 mph 78.8% 0 in
08:49 64.6 °F 57.6 °F 29.9 in SO 3.4 mph 6.2 mph 78% 0 in
08:54 64.9 °F 57.7 °F 29.9 in SO 3.1 mph 6.2 mph 77.6% 0 in
08:59 65.1 °F 57.7 °F 29.9 in OSO 3.5 mph 6.9 mph 76.9% 0 in
09:04 65.7 °F 57.9 °F 29.9 in SO 4 mph 7 mph 76.3% 0 in
09:09 65.8 °F 57.7 °F 29.9 in SO 3.7 mph 6 mph 75.3% 0 in
09:14 65.8 °F 57.6 °F 29.9 in Oeste 3.1 mph 6.9 mph 74.3% 0 in
09:19 66 °F 56.8 °F 29.9 in OSO 3.4 mph 8.1 mph 72% 0 in
09:24 66.4 °F 56.3 °F 29.9 in Oeste 4 mph 8 mph 69.9% 0 in
09:29 66.4 °F 55.9 °F 29.9 in OSO 4.1 mph 7 mph 69% 0 in
09:34 66.6 °F 55.9 °F 29.9 in OSO 4.3 mph 6.9 mph 68.9% 0 in
09:39 66.7 °F 55.8 °F 29.9 in OSO 4.3 mph 8.5 mph 67.7% 0 in
09:44 67.1 °F 55.8 °F 29.9 in Oeste 4.3 mph 9 mph 67.2% 0 in
09:49 67.3 °F 55.9 °F 29.9 in SO 4.3 mph 7 mph 67.1% 0 in
09:54 67.6 °F 55.9 °F 29.9 in SO 4.3 mph 7 mph 66.3% 0 in
09:59 68 °F 56.1 °F 29.9 in SSO 4 mph 7 mph 65.9% 0 in
10:04 68.4 °F 55.9 °F 29.9 in OSO 3.6 mph 6.9 mph 64.5% 0 in
10:09 68.7 °F 55.9 °F 29.9 in OSO 3.6 mph 7 mph 63.9% 0 in
10:14 68.9 °F 55.8 °F 29.9 in Oeste 3.6 mph 6 mph 63.1% 0 in
10:19 69.3 °F 55.9 °F 29.9 in ONO 3.4 mph 6.9 mph 62.7% 0 in
10:24 69.6 °F 55.8 °F 29.9 in OSO 3.1 mph 7 mph 61.5% 0 in
10:29 70.2 °F 55.9 °F 29.9 in OSO 3.3 mph 7 mph 60.5% 0 in
10:34 70.5 °F 55.9 °F 29.9 in SSO 3.6 mph 6.9 mph 59.8% 0 in
10:39 70.9 °F 55.6 °F 29.9 in SSO 3.7 mph 9.7 mph 58.6% 0 in
10:44 71.1 °F 55.8 °F 29.9 in SO 4 mph 10 mph 58.4% 0 in
10:49 71.2 °F 55.6 °F 29.9 in SO 3.9 mph 7 mph 57.7% 0 in
10:54 72 °F 55.8 °F 29.9 in ONO 3.6 mph 6.9 mph 56.9% 0 in
10:59 72.3 °F 55.6 °F 29.9 in SO 3.3 mph 8.1 mph 55.9% 0 in
11:04 72.7 °F 55.6 °F 29.9 in Oeste 2.9 mph 8 mph 55% 0 in
11:09 72.9 °F 55.8 °F 29.9 in ONO 3.2 mph 7 mph 55% 0 in
11:14 73.4 °F 55.6 °F 29.9 in OSO 3.6 mph 8.1 mph 54% 0 in
11:19 73.4 °F 55.8 °F 29.9 in Oeste 3.4 mph 8 mph 54% 0 in
11:24 73.8 °F 55 °F 29.9 in Oeste 2.9 mph 8.1 mph 51.9% 0 in
11:29 74.1 °F 55 °F 29.9 in OSO 3.3 mph 9.2 mph 51.3% 0 in
11:34 74.7 °F 55.4 °F 29.9 in SE 4 mph 9 mph 51.3% 0 in
11:39 75 °F 54.7 °F 29.9 in Oeste 3.9 mph 8.5 mph 49.1% 0 in
11:44 75 °F 55 °F 29.9 in ONO 3.6 mph 9 mph 49.8% 0 in
11:49 75.6 °F 55.2 °F 29.9 in ONO 3.2 mph 6 mph 49.1% 0 in
11:54 76.3 °F 54.9 °F 29.9 in SSO 2.4 mph 8.5 mph 47.6% 0 in
11:59 76.5 °F 54.7 °F 29.9 in SSE 3 mph 9 mph 47% 0 in
12:04 76.5 °F 54.7 °F 29.9 in Este 4 mph 6 mph 47.1% 0 in
12:09 76.5 °F 54.3 °F 29.9 in SE 3.9 mph 8.5 mph 46.4% 0 in
12:14 76.5 °F 54.1 °F 29.9 in SSE 3.6 mph 9 mph 46% 0 in
12:19 76.6 °F 54.1 °F 29.9 in Sur 3.6 mph 7.4 mph 46% 0 in
12:24 76.8 °F 54.1 °F 29.9 in SSO 3.6 mph 11.5 mph 45.3% 0 in
12:29 76.8 °F 54 °F 29.9 in Sur 4.2 mph 12 mph 45% 0 in
12:34 77.4 °F 53.6 °F 29.9 in SE 5.2 mph 7 mph 43.9% 0 in
12:39 77.7 °F 53.6 °F 29.9 in ESE 4.3 mph 5.9 mph 43.2% 0 in
12:44 78.3 °F 53.8 °F 29.9 in ENE 2.9 mph 6 mph 42.8% 0 in
12:49 78.8 °F 53.4 °F 29.9 in Sur 3 mph 8.5 mph 41.3% 0 in
12:54 78.8 °F 53.4 °F 29.8 in ONO 3.1 mph 9 mph 41.5% 0 in
12:59 78.8 °F 53.4 °F 29.8 in ONO 3.5 mph 9 mph 41.3% 0 in
13:04 79.2 °F 53.4 °F 29.8 in SO 4.3 mph 6.9 mph 41.3% 0 in
13:09 79.3 °F 53.4 °F 29.8 in Sur 3.9 mph 8.1 mph 40.9% 0 in
13:14 79.7 °F 53.1 °F 29.8 in Oeste 3.1 mph 10.7 mph 39.9% 0 in
13:19 79.9 °F 52.2 °F 29.8 in SSO 3.7 mph 11 mph 38.2% 0 in
13:24 80.1 °F 52.3 °F 29.8 in SSE 4.7 mph 8.5 mph 38.3% 0 in
13:29 80.2 °F 52.3 °F 29.8 in Sur 4.3 mph 9 mph 38.2% 0 in
13:34 80.6 °F 52.3 °F 29.8 in SSE 3.6 mph 8.1 mph 37.7% 0 in
13:39 80.6 °F 51.8 °F 29.8 in OSO 4 mph 10.7 mph 37% 0 in
13:44 80.4 °F 51.8 °F 29.8 in SO 4.7 mph 11 mph 37% 0 in
13:49 80.4 °F 52.3 °F 29.8 in Sur 4.3 mph 7 mph 37.6% 0 in
13:54 81.3 °F 52.5 °F 29.8 in NO 3.6 mph 7.4 mph 37.1% 0 in
13:59 81.9 °F 52.2 °F 29.8 in SSE 3.4 mph 7.4 mph 36% 0 in
14:04 81.9 °F 52 °F 29.8 in ESE 3.1 mph 9.2 mph 35.6% 0 in
14:09 82 °F 51.8 °F 29.8 in SSO 4.2 mph 13 mph 35.2% 0 in
14:14 81.9 °F 51.4 °F 29.8 in Sur 5.9 mph 13 mph 35% 0 in
14:19 82.2 °F 51.4 °F 29.8 in Sur 5.2 mph 10.4 mph 34.5% 0 in
14:24 82.6 °F 50.9 °F 29.8 in SE 4 mph 10 mph 33.3% 0 in
14:29 82.6 °F 50.7 °F 29.8 in SSE 4.1 mph 10.4 mph 33.2% 0 in
14:34 82.6 °F 50.9 °F 29.8 in SE 4.3 mph 10.4 mph 33.3% 0 in
14:39 82.9 °F 51.1 °F 29.8 in Sur 4.5 mph 10 mph 33.3% 0 in
14:44 83.5 °F 50.7 °F 29.8 in SSE 4.7 mph 12.7 mph 32.4% 0 in
14:49 83.5 °F 50.7 °F 29.8 in Sur 5.3 mph 13 mph 32.2% 0 in
14:54 83.5 °F 50.5 °F 29.8 in Oeste 6.2 mph 13 mph 32% 0 in
14:59 83.5 °F 50.5 °F 29.8 in ENE 5.3 mph 8 mph 32% 0 in
15:04 83.7 °F 50.2 °F 29.8 in SSE 4 mph 8.7 mph 31.4% 0 in
15:09 84 °F 50 °F 29.8 in SSE 4 mph 9.2 mph 30.8% 0 in
15:14 84.6 °F 50 °F 29.8 in NNE 4 mph 9 mph 30.3% 0 in
15:19 84.4 °F 49.6 °F 29.8 in ENE 4 mph 8 mph 30.1% 0 in
15:24 84.7 °F 49.8 °F 29.8 in ESE 4 mph 5 mph 30.1% 0 in
15:29 85.3 °F 50.4 °F 29.8 in ENE 3.3 mph 5.2 mph 30% 0 in
15:34 85.5 °F 50.2 °F 29.8 in Este 2 mph 8.1 mph 29.6% 0 in
15:39 85.5 °F 50 °F 29.8 in ESE 2.9 mph 10.4 mph 29.4% 0 in
15:44 85.5 °F 50.2 °F 29.8 in Este 4.3 mph 10.4 mph 29.6% 0 in
15:49 85.6 °F 49.6 °F 29.8 in ESE 4.5 mph 11.8 mph 29.1% 0 in
15:54 85.6 °F 49.6 °F 29.8 in ESE 4.7 mph 12.3 mph 28.9% 0 in
15:59 85.6 °F 53.4 °F 29.8 in ESE 6.1 mph 21.9 mph 33.1% 0 in
16:04 85.3 °F 55.8 °F 29.8 in ESE 8.1 mph 22 mph 36.8% 0 in
16:09 84.6 °F 55.8 °F 29.8 in SE 9.4 mph 20 mph 37.3% 0 in
16:14 84.6 °F 55.8 °F 29.8 in ESE 11.8 mph 20 mph 37.4% 0 in
16:19 84.4 °F 55.9 °F 29.8 in SE 11.8 mph 20.7 mph 37.8% 0 in
16:24 83.8 °F 56.3 °F 29.8 in SE 11.8 mph 21 mph 39.2% 0 in
16:29 84 °F 56.3 °F 29.8 in SE 11.8 mph 18.5 mph 38.9% 0 in
16:34 83.8 °F 56.7 °F 29.8 in SE 11.8 mph 20.8 mph 39.5% 0 in
16:39 83.7 °F 57 °F 29.8 in ESE 12 mph 21 mph 40.3% 0 in
16:44 83.8 °F 56.8 °F 29.8 in SE 12.3 mph 18.4 mph 40% 0 in
16:49 84 °F 57.4 °F 29.8 in SE 11.7 mph 18 mph 40.3% 0 in
16:54 84.6 °F 57.6 °F 29.8 in ESE 10.7 mph 20.1 mph 40.1% 0 in
16:59 84.6 °F 57.6 °F 29.8 in ESE 10.7 mph 21.3 mph 39.8% 0 in
17:04 84.2 °F 57.4 °F 29.8 in ESE 10.7 mph 21 mph 40% 0 in
17:09 84 °F 57 °F 29.8 in ESE 11.1 mph 24.6 mph 40% 0 in
17:14 83.8 °F 57 °F 29.8 in SE 11.8 mph 25 mph 40% 0 in
17:19 83.1 °F 56.5 °F 29.8 in SE 12 mph 21.3 mph 40.3% 0 in
17:24 82.4 °F 56.3 °F 29.8 in SE 12.3 mph 21 mph 41% 0 in
17:29 82.2 °F 56.1 °F 29.8 in ESE 12.3 mph 22.3 mph 41% 0 in
17:34 82 °F 56.1 °F 29.8 in ESE 12.3 mph 22 mph 41.1% 0 in
17:39 82 °F 56.5 °F 29.8 in SE 12.1 mph 22 mph 41.6% 0 in
17:44 82.2 °F 56.5 °F 29.8 in ESE 11.8 mph 20.4 mph 41.5% 0 in
17:49 82.6 °F 56.5 °F 29.8 in SE 11.6 mph 20 mph 41% 0 in
17:54 82.6 °F 56.5 °F 29.8 in ESE 11.2 mph 20 mph 41% 0 in
17:59 82.4 °F 56.3 °F 29.8 in ESE 11.3 mph 23.5 mph 41% 0 in
18:04 82.2 °F 56.1 °F 29.8 in SE 11.4 mph 23 mph 41.1% 0 in
18:09 82.2 °F 56.1 °F 29.8 in SE 11.3 mph 19 mph 41% 0 in
18:14 82.2 °F 56.3 °F 29.8 in SE 11.2 mph 18.4 mph 41% 0 in
18:19 82.2 °F 55.9 °F 29.8 in SE 10.6 mph 18 mph 40.4% 0 in
18:24 82 °F 55.4 °F 29.8 in SE 9.7 mph 17 mph 40% 0 in
18:29 82 °F 55.2 °F 29.8 in SE 9.9 mph 16.1 mph 40% 0 in
18:34 82 °F 55.4 °F 29.8 in SE 10.2 mph 16 mph 39.9% 0 in
18:39 82.6 °F 55.2 °F 29.8 in ESE 9.6 mph 14 mph 39.3% 0 in
18:44 83.1 °F 55.4 °F 29.8 in ESE 8.7 mph 14 mph 38.6% 0 in
18:49 83.5 °F 55.2 °F 29.8 in SE 7.8 mph 12.7 mph 37.9% 0 in
18:54 83.7 °F 55 °F 29.8 in ESE 6.2 mph 13.5 mph 37.6% 0 in
18:59 83.5 °F 55 °F 29.8 in ESE 7 mph 14 mph 37.8% 0 in
19:04 83.1 °F 54.9 °F 29.8 in ESE 8.1 mph 15 mph 37.9% 0 in
19:09 83.1 °F 54.3 °F 29.8 in ESE 8.3 mph 15 mph 37.2% 0 in
19:14 82.9 °F 54 °F 29.8 in ESE 8.7 mph 15.9 mph 36.9% 0 in
19:19 82.8 °F 53.4 °F 29.8 in ESE 8.4 mph 16.1 mph 36.7% 0 in
19:24 82.4 °F 52.9 °F 29.8 in ESE 8.1 mph 14 mph 36.3% 0 in
19:29 82 °F 53.1 °F 29.8 in ESE 7.8 mph 13 mph 37% 0 in
19:34 81.7 °F 53.1 °F 29.8 in ESE 7.4 mph 10 mph 37.1% 0 in
19:39 81.7 °F 53.1 °F 29.8 in ESE 6.8 mph 9.7 mph 37.3% 0 in
19:44 81.9 °F 53.6 °F 29.8 in ESE 5.9 mph 10 mph 38% 0 in
19:49 81.9 °F 53.2 °F 29.8 in ESE 5.7 mph 9.2 mph 37.2% 0 in
19:54 81.9 °F 53.4 °F 29.8 in ESE 5.4 mph 9.2 mph 37.5% 0 in
19:59 81.9 °F 53.2 °F 29.8 in SE 5.1 mph 8 mph 37.2% 0 in
20:04 82 °F 53.1 °F 29.8 in SSE 4.7 mph 8.1 mph 37% 0 in
20:09 82 °F 53.4 °F 29.8 in ESE 4.4 mph 8 mph 37.3% 0 in
20:14 82 °F 53.2 °F 29.8 in ESE 4 mph 6.9 mph 37% 0 in
20:19 81.9 °F 53.1 °F 29.8 in SE 3.9 mph 7 mph 37% 0 in
20:24 81.7 °F 52.9 °F 29.8 in ESE 3.6 mph 6.9 mph 37% 0 in
20:29 81.7 °F 53.4 °F 29.8 in ESE 3.7 mph 7 mph 37.9% 0 in
20:34 81.3 °F 53.1 °F 29.8 in ESE 4 mph 6 mph 37.8% 0 in
20:39 81.1 °F 53.1 °F 29.8 in ESE 4 mph 6 mph 38% 0 in
20:44 81.1 °F 53.1 °F 29.8 in Este 4 mph 8.1 mph 38% 0 in
20:49 81 °F 53.6 °F 29.8 in Este 4 mph 8 mph 39% 0 in
20:54 80.4 °F 53.2 °F 29.8 in ENE 4 mph 8.1 mph 39% 0 in
20:59 80.1 °F 52.9 °F 29.8 in Este 4.3 mph 8.1 mph 38.9% 0 in
21:04 79.9 °F 52.3 °F 29.8 in Este 4.7 mph 8.1 mph 38.5% 0 in
21:09 79.7 °F 51.8 °F 29.8 in ESE 4.9 mph 8.5 mph 38% 0 in
21:14 79.5 °F 51.6 °F 29.8 in ESE 5.2 mph 9 mph 38% 0 in
21:19 79.3 °F 51.4 °F 29.8 in SE 4.8 mph 8 mph 38% 0 in
21:24 79.2 °F 51.4 °F 29.8 in SE 4.3 mph 7 mph 38% 0 in
21:29 79 °F 51.3 °F 29.8 in ESE 4 mph 7 mph 38.1% 0 in
21:34 78.8 °F 51.8 °F 29.8 in NNE 3.6 mph 5.9 mph 39% 0 in
21:39 78.1 °F 54 °F 29.8 in NE 3.7 mph 10.4 mph 43.2% 0 in
21:44 77.2 °F 56.1 °F 29.8 in NNE 4 mph 15.2 mph 48.5% 0 in
21:49 75.4 °F 58.3 °F 29.8 in NE 5.3 mph 15 mph 55.2% 0 in
21:54 74.3 °F 58.3 °F 29.8 in NNE 7.6 mph 15 mph 57.3% 0 in
21:59 73.6 °F 59.5 °F 29.8 in NNE 8 mph 15 mph 61.4% 0 in
22:04 72.5 °F 60.3 °F 29.8 in NNE 8.5 mph 16.1 mph 65.4% 0 in
22:09 71.6 °F 60.4 °F 29.8 in NNE 8.9 mph 16 mph 67.7% 0 in
22:14 71.1 °F 60.6 °F 29.8 in NE 9.7 mph 16.3 mph 69.4% 0 in
22:19 70.7 °F 60.8 °F 29.8 in NNE 9.5 mph 16 mph 70.8% 0 in
22:24 70.3 °F 61 °F 29.8 in NNE 9.2 mph 15 mph 71.9% 0 in
22:29 70.2 °F 61 °F 29.8 in NNE 8.8 mph 15 mph 72.8% 0 in
22:34 70.2 °F 61.2 °F 29.8 in NNE 8.1 mph 13 mph 73.5% 0 in
22:39 69.8 °F 61.3 °F 29.8 in NNE 8.3 mph 13.8 mph 74.6% 0 in
22:44 69.6 °F 61.3 °F 29.8 in NNE 8.5 mph 14 mph 75% 0 in
22:49 69.6 °F 61.3 °F 29.8 in NNE 7.1 mph 9 mph 75% 0 in
22:54 69.8 °F 61.5 °F 29.8 in North 4.7 mph 10.7 mph 75% 0 in
22:59 69.6 °F 61.5 °F 29.8 in NNE 4.9 mph 11 mph 75.7% 0 in
23:04 69.4 °F 61.5 °F 29.8 in NE 5.2 mph 11.5 mph 76.2% 0 in
23:09 69.3 °F 61.7 °F 29.8 in NE 5.8 mph 13 mph 77% 0 in
23:14 69.1 °F 61.7 °F 29.8 in NE 6.9 mph 13.8 mph 77.6% 0 in
23:19 68.7 °F 61.7 °F 29.8 in NE 7.1 mph 14 mph 78% 0 in
23:24 68.7 °F 61.9 °F 29.8 in NE 7.6 mph 15 mph 79% 0 in
23:29 68.4 °F 61.9 °F 29.8 in NE 8 mph 15 mph 79.4% 0 in
23:34 68.4 °F 61.9 °F 29.8 in NE 8.7 mph 15 mph 80% 0 in
23:39 68.2 °F 61.9 °F 29.8 in NE 8.7 mph 15 mph 80% 0 in
23:44 68.2 °F 61.9 °F 29.8 in NE 8.7 mph 13 mph 80.2% 0 in
23:49 68.2 °F 62.1 °F 29.8 in NNE 7.9 mph 12 mph 81% 0 in
23:54 68 °F 61.9 °F 29.8 in NNE 6.4 mph 12 mph 81% 0 in
23:59 67.8 °F 61.9 °F 29.8 in NNE 6.3 mph 12 mph 81.4% 0 in
Murcia-Puente Tocinos, España
Compliments of Weather Underground - 3 mb

La estación de MeteoMurcia.com, publica sus datos en los siguientes proyectos:

Weather Underground PWS IMURCIAP2 Meteoclimatic www.awekas.at

W3Counter
Web Analytics